createdAt,value
2019-03-30T00:03:01.360Z,2.2
2019-03-30T00:14:01.449Z,3.6
2019-03-30T00:19:01.297Z,2.2
2019-03-30T00:24:01.460Z,2.2
2019-03-30T00:34:01.403Z,2.3
2019-03-30T00:39:01.265Z,2.1
2019-03-30T00:44:01.401Z,2.1
2019-03-30T00:49:03.464Z,1.2
2019-03-30T00:55:01.362Z,1.3
2019-03-30T01:00:01.300Z,1.4
2019-03-30T01:05:01.365Z,1.4
2019-03-30T01:10:01.363Z,1.5
2019-03-30T01:15:01.396Z,1.5
2019-03-30T01:30:01.403Z,1.5
2019-03-30T01:35:01.606Z,1.5
2019-03-30T01:45:01.493Z,1.5
2019-03-30T01:50:01.336Z,1.6
2019-03-30T02:00:01.434Z,1.5
2019-03-30T02:15:01.460Z,1.5
2019-03-30T02:20:01.319Z,1.6
2019-03-30T02:31:01.461Z,1.6
2019-03-30T02:41:01.390Z,1.8
2019-03-30T02:46:01.369Z,1.8
2019-03-30T02:56:01.403Z,1.9
2019-03-30T03:06:01.396Z,1.5
2019-03-30T03:11:01.314Z,2.7
2019-03-30T03:17:01.389Z,2.5
2019-03-30T03:22:06.304Z,2.1
2019-03-30T03:37:01.431Z,1.3
2019-03-30T03:42:01.369Z,1.4
2019-03-30T03:57:01.447Z,1.6
2019-03-30T04:02:01.296Z,2.0
2019-03-30T04:07:01.426Z,1.9
2019-03-30T04:12:01.293Z,2.2
2019-03-30T04:27:01.304Z,2.1
2019-03-30T04:32:01.310Z,2.0
2019-03-30T04:37:01.357Z,2.0
2019-03-30T04:42:01.297Z,1.4
2019-03-30T04:47:01.427Z,1.4
2019-03-30T04:57:01.420Z,2.5
2019-03-30T05:02:01.303Z,1.6
2019-03-30T05:07:01.363Z,1.6
2019-03-30T05:17:01.416Z,1.5
2019-03-30T05:22:16.409Z,2.0
2019-03-30T05:27:01.311Z,2.1
2019-03-30T05:32:01.965Z,1.6
2019-03-30T05:47:01.298Z,1.6
2019-03-30T05:52:01.268Z,1.7
2019-03-30T06:02:01.449Z,1.5
2019-03-30T06:07:01.412Z,1.6
2019-03-30T06:12:01.304Z,1.7
2019-03-30T06:17:01.367Z,1.8
2019-03-30T06:27:01.418Z,1.9
2019-03-30T06:42:01.418Z,1.9
2019-03-30T06:52:01.368Z,2.0
2019-03-30T07:02:01.382Z,2.0
2019-03-30T07:07:01.370Z,2.0
2019-03-30T07:22:01.389Z,2.0
2019-03-30T07:33:01.396Z,2.1
2019-03-30T07:48:01.393Z,2.2
2019-03-30T08:03:01.502Z,2.3
2019-03-30T08:14:01.362Z,2.4
2019-03-30T08:19:01.459Z,4.8
2019-03-30T08:24:01.366Z,4.9
2019-03-30T08:29:01.301Z,8.1
2019-03-30T08:34:01.347Z,8.1
2019-03-30T08:39:01.376Z,10.8
2019-03-30T08:44:01.502Z,10.9
2019-03-30T08:49:01.375Z,16.3
2019-03-30T08:54:02.475Z,16.3
2019-03-30T08:59:01.314Z,16.3
2019-03-30T09:04:01.486Z,16.5
2019-03-30T09:09:01.391Z,19.3
2019-03-30T09:14:01.414Z,19.0
2019-03-30T09:19:01.295Z,22.0
2019-03-30T09:24:10.519Z,21.9
2019-03-30T09:29:01.302Z,27.0
2019-03-30T09:34:01.340Z,27.3
2019-03-30T09:39:01.307Z,28.0
2019-03-30T09:44:01.409Z,28.3
2019-03-30T09:49:01.494Z,31.0
2019-03-30T09:54:01.368Z,30.9
2019-03-30T09:59:01.331Z,33.1
2019-03-30T10:04:06.373Z,33.2
2019-03-30T10:09:01.444Z,36.4
2019-03-30T10:14:01.372Z,35.5
2019-03-30T10:19:02.264Z,38.1
2019-03-30T10:24:01.402Z,37.4
2019-03-30T10:29:01.345Z,38.9
2019-03-30T10:34:01.534Z,37.1
2019-03-30T10:39:01.304Z,38.2
2019-03-30T10:44:01.437Z,37.6
2019-03-30T10:49:01.279Z,37.5
2019-03-30T10:54:01.706Z,37.9
2019-03-30T10:59:01.325Z,39.7
2019-03-30T11:04:01.359Z,39.7
2019-03-30T11:09:01.324Z,39.5
2019-03-30T11:14:01.586Z,39.5
2019-03-30T11:19:01.296Z,41.1
2019-03-30T11:24:01.427Z,41.0
2019-03-30T11:29:01.359Z,41.5
2019-03-30T11:34:01.393Z,41.6
2019-03-30T11:39:01.289Z,41.4
2019-03-30T11:44:01.418Z,41.0
2019-03-30T11:49:01.310Z,42.2
2019-03-30T11:54:01.434Z,42.5
2019-03-30T11:59:01.325Z,43.6
2019-03-30T12:04:01.449Z,43.0
2019-03-30T12:09:01.334Z,43.9
2019-03-30T12:14:01.369Z,44.2
2019-03-30T12:19:01.342Z,43.1
2019-03-30T12:24:01.375Z,43.1
2019-03-30T12:29:01.406Z,43.0
2019-03-30T12:34:01.417Z,42.7
2019-03-30T12:44:01.324Z,44.6
2019-03-30T12:54:01.376Z,44.0
2019-03-30T12:59:01.335Z,42.8
2019-03-30T13:04:01.359Z,42.6
2019-03-30T13:09:01.298Z,42.0
2019-03-30T13:14:01.395Z,42.0
2019-03-30T13:19:01.344Z,41.6
2019-03-30T13:24:01.375Z,42.7
2019-03-30T13:29:01.307Z,44.4
2019-03-30T13:34:01.417Z,44.1
2019-03-30T13:39:01.304Z,44.0
2019-03-30T13:44:01.332Z,43.6
2019-03-30T13:49:01.299Z,43.0
2019-03-30T13:54:01.392Z,41.4
2019-03-30T13:59:01.305Z,40.6
2019-03-30T14:04:01.382Z,40.5
2019-03-30T14:09:01.285Z,40.9
2019-03-30T14:14:01.476Z,41.2
2019-03-30T14:24:01.425Z,39.8
2019-03-30T14:29:01.329Z,40.5
2019-03-30T14:34:01.361Z,41.3
2019-03-30T14:39:01.304Z,42.6
2019-03-30T14:44:01.466Z,43.5
2019-03-30T14:49:01.336Z,43.4
2019-03-30T14:54:01.430Z,43.9
2019-03-30T14:59:10.783Z,44.3
2019-03-30T15:04:01.338Z,44.2
2019-03-30T15:09:01.410Z,45.0
2019-03-30T15:15:01.345Z,44.1
2019-03-30T15:20:01.279Z,45.7
2019-03-30T15:25:01.355Z,47.0
2019-03-30T15:30:01.347Z,47.7
2019-03-30T15:35:01.424Z,49.0
2019-03-30T15:40:01.367Z,49.8
2019-03-30T15:45:01.371Z,50.7
2019-03-30T15:50:01.343Z,50.3
2019-03-30T15:55:01.466Z,50.3
2019-03-30T16:00:01.319Z,50.9
2019-03-30T16:06:01.453Z,51.3
2019-03-30T16:11:01.340Z,49.9
2019-03-30T16:16:01.426Z,47.0
2019-03-30T16:21:01.303Z,50.1
2019-03-30T16:26:01.362Z,47.7
2019-03-30T16:31:01.302Z,44.0
2019-03-30T16:36:03.098Z,41.9
2019-03-30T16:46:01.704Z,42.3
2019-03-30T16:51:01.302Z,41.5
2019-03-30T16:56:01.365Z,41.8
2019-03-30T17:01:01.296Z,40.8
2019-03-30T17:06:01.357Z,41.6
2019-03-30T17:11:01.284Z,39.1
2019-03-30T17:21:01.365Z,38.1
2019-03-30T17:26:01.497Z,38.4
2019-03-30T17:31:01.316Z,34.4
2019-03-30T17:36:01.363Z,34.9
2019-03-30T17:41:01.289Z,34.4
2019-03-30T17:46:01.307Z,31.4
2019-03-30T17:51:01.297Z,30.0
2019-03-30T17:56:02.389Z,30.9
2019-03-30T18:01:01.310Z,29.6
2019-03-30T18:06:01.360Z,27.5
2019-03-30T18:11:04.384Z,27.3
2019-03-30T18:16:01.358Z,24.8
2019-03-30T18:21:01.329Z,25.2
2019-03-30T18:26:01.426Z,22.3
2019-03-30T18:31:01.311Z,22.2
2019-03-30T18:36:01.427Z,20.9
2019-03-30T18:41:01.308Z,22.6
2019-03-30T18:46:01.369Z,22.0
2019-03-30T18:51:01.303Z,23.5
2019-03-30T18:56:01.362Z,22.4
2019-03-30T19:01:01.291Z,21.9
2019-03-30T19:06:01.468Z,18.6
2019-03-30T19:11:01.333Z,19.7
2019-03-30T19:16:01.400Z,17.7
2019-03-30T19:21:01.299Z,17.0
2019-03-30T19:26:01.466Z,13.8
2019-03-30T19:31:01.302Z,13.1
2019-03-30T19:36:01.407Z,10.5
2019-03-30T19:41:01.332Z,9.5
2019-03-30T19:46:01.374Z,6.9
2019-03-30T19:51:01.336Z,4.9
2019-03-30T19:56:01.371Z,4.7
2019-03-30T20:01:01.326Z,4.7
2019-03-30T20:06:01.564Z,5.4
2019-03-30T20:11:06.622Z,3.6
2019-03-30T20:16:01.426Z,3.6
2019-03-30T20:21:01.450Z,3.7
2019-03-30T20:26:01.396Z,2.0
2019-03-30T20:31:01.335Z,1.9
2019-03-30T20:36:01.372Z,2.7
2019-03-30T20:41:01.339Z,2.9
2019-03-30T20:46:01.457Z,2.7
2019-03-30T20:51:01.290Z,3.1
2019-03-30T20:56:06.531Z,3.0
2019-03-30T21:01:01.291Z,4.3
2019-03-30T21:06:01.369Z,4.1
2019-03-30T21:11:01.335Z,4.6
2019-03-30T21:16:01.365Z,4.3
2019-03-30T21:21:01.301Z,4.7
2019-03-30T21:26:01.404Z,4.6
2019-03-30T21:31:01.293Z,4.3
2019-03-30T21:36:01.390Z,4.2
2019-03-30T21:41:01.311Z,4.5
2019-03-30T21:46:01.356Z,4.5
2019-03-30T21:51:01.301Z,4.2
2019-03-30T22:01:01.463Z,4.2
2019-03-30T22:11:01.429Z,3.7
2019-03-30T22:16:01.360Z,3.7
2019-03-30T22:26:01.454Z,4.0
2019-03-30T22:31:01.338Z,4.4
2019-03-30T22:36:01.424Z,4.5
2019-03-30T22:41:01.302Z,5.0
2019-03-30T22:46:01.395Z,4.6
2019-03-30T22:51:01.302Z,4.7
2019-03-30T23:01:01.376Z,4.1
2019-03-30T23:06:01.456Z,3.8
2019-03-30T23:11:01.348Z,5.0
2019-03-30T23:16:02.208Z,4.8
2019-03-30T23:21:01.309Z,4.6
2019-03-30T23:26:01.392Z,4.7
2019-03-30T23:31:01.291Z,4.3
2019-03-30T23:36:01.360Z,4.0
2019-03-30T23:41:01.319Z,3.8
2019-03-30T23:46:01.504Z,3.6
2019-03-30T23:51:01.338Z,3.2
2019-03-30T23:56:01.396Z,3.2
